sensor_id;sensor_type;location;lat;lon;timestamp;temperature;humidity
52973;DHT22;38837;48.916;2.336;2023-06-10T00:00:48;27.30;41.90
52973;DHT22;38837;48.916;2.336;2023-06-10T00:02:50;27.20;41.70
52973;DHT22;38837;48.916;2.336;2023-06-10T00:04:52;27.20;41.70
52973;DHT22;38837;48.916;2.336;2023-06-10T00:06:54;27.20;41.80
52973;DHT22;38837;48.916;2.336;2023-06-10T00:08:56;27.20;42.00
52973;DHT22;38837;48.916;2.336;2023-06-10T00:10:58;27.20;41.80
52973;DHT22;38837;48.916;2.336;2023-06-10T00:13:04;27.20;42.20
52973;DHT22;38837;48.916;2.336;2023-06-10T00:15:07;27.20;41.90
52973;DHT22;38837;48.916;2.336;2023-06-10T00:17:10;27.20;41.90
52973;DHT22;38837;48.916;2.336;2023-06-10T00:19:12;27.20;41.90
52973;DHT22;38837;48.916;2.336;2023-06-10T00:21:17;27.20;42.00
52973;DHT22;38837;48.916;2.336;2023-06-10T00:23:21;27.20;42.30
52973;DHT22;38837;48.916;2.336;2023-06-10T00:25:23;27.20;42.00
52973;DHT22;38837;48.916;2.336;2023-06-10T00:27:25;27.10;41.90
52973;DHT22;38837;48.916;2.336;2023-06-10T00:29:33;27.10;41.90
52973;DHT22;38837;48.916;2.336;2023-06-10T00:31:39;27.20;42.10
52973;DHT22;38837;48.916;2.336;2023-06-10T00:33:41;27.10;41.90
52973;DHT22;38837;48.916;2.336;2023-06-10T00:35:43;27.10;42.00
52973;DHT22;38837;48.916;2.336;2023-06-10T00:37:44;27.10;42.00
52973;DHT22;38837;48.916;2.336;2023-06-10T00:39:47;27.10;42.00
52973;DHT22;38837;48.916;2.336;2023-06-10T00:41:48;27.10;41.90
52973;DHT22;38837;48.916;2.336;2023-06-10T00:43:51;27.10;42.30
52973;DHT22;38837;48.916;2.336;2023-06-10T00:45:53;27.10;42.00
52973;DHT22;38837;48.916;2.336;2023-06-10T00:47:55;27.10;42.10
52973;DHT22;38837;48.916;2.336;2023-06-10T00:49:58;27.10;42.20
52973;DHT22;38837;48.916;2.336;2023-06-10T00:52:01;27.10;42.20
52973;DHT22;38837;48.916;2.336;2023-06-10T00:54:04;27.10;42.20
52973;DHT22;38837;48.916;2.336;2023-06-10T00:56:07;27.10;42.40
52973;DHT22;38837;48.916;2.336;2023-06-10T00:58:09;27.10;42.30
52973;DHT22;38837;48.916;2.336;2023-06-10T01:00:12;27.10;42.30
52973;DHT22;38837;48.916;2.336;2023-06-10T01:02:15;27.10;42.30
52973;DHT22;38837;48.916;2.336;2023-06-10T01:04:17;27.10;42.40
52973;DHT22;38837;48.916;2.336;2023-06-10T01:09:02;27.00;42.10
52973;DHT22;38837;48.916;2.336;2023-06-10T01:11:10;27.00;42.20
52973;DHT22;38837;48.916;2.336;2023-06-10T01:13:14;27.00;42.20
52973;DHT22;38837;48.916;2.336;2023-06-10T01:15:17;27.00;42.10
52973;DHT22;38837;48.916;2.336;2023-06-10T01:17:19;27.00;42.10
52973;DHT22;38837;48.916;2.336;2023-06-10T01:19:21;27.00;42.10
52973;DHT22;38837;48.916;2.336;2023-06-10T01:21:25;27.00;42.10
52973;DHT22;38837;48.916;2.336;2023-06-10T01:23:28;27.00;42.10
52973;DHT22;38837;48.916;2.336;2023-06-10T01:25:31;27.00;42.10
52973;DHT22;38837;48.916;2.336;2023-06-10T01:27:35;27.00;42.10
52973;DHT22;38837;48.916;2.336;2023-06-10T01:29:45;27.00;42.10
52973;DHT22;38837;48.916;2.336;2023-06-10T01:34:05;26.90;42.20
52973;DHT22;38837;48.916;2.336;2023-06-10T01:36:09;26.90;42.10
52973;DHT22;38837;48.916;2.336;2023-06-10T01:38:14;27.00;42.20
52973;DHT22;38837;48.916;2.336;2023-06-10T01:40:17;26.90;42.10
52973;DHT22;38837;48.916;2.336;2023-06-10T01:42:20;26.90;42.30
52973;DHT22;38837;48.916;2.336;2023-06-10T01:44:23;26.90;42.30
52973;DHT22;38837;48.916;2.336;2023-06-10T01:46:25;26.90;42.20
52973;DHT22;38837;48.916;2.336;2023-06-10T01:48:27;26.90;42.30
52973;DHT22;38837;48.916;2.336;2023-06-10T01:50:29;26.90;42.30
52973;DHT22;38837;48.916;2.336;2023-06-10T01:52:31;26.90;42.40
52973;DHT22;38837;48.916;2.336;2023-06-10T01:54:33;26.90;42.30
52973;DHT22;38837;48.916;2.336;2023-06-10T01:56:36;26.80;42.30
52973;DHT22;38837;48.916;2.336;2023-06-10T01:58:38;26.90;42.40
52973;DHT22;38837;48.916;2.336;2023-06-10T02:00:40;26.80;42.40
52973;DHT22;38837;48.916;2.336;2023-06-10T02:02:42;26.90;42.40
52973;DHT22;38837;48.916;2.336;2023-06-10T02:04:44;26.90;42.40
52973;DHT22;38837;48.916;2.336;2023-06-10T02:06:46;26.80;42.30
52973;DHT22;38837;48.916;2.336;2023-06-10T02:08:48;26.80;42.30
52973;DHT22;38837;48.916;2.336;2023-06-10T02:10:51;26.80;42.40
52973;DHT22;38837;48.916;2.336;2023-06-10T02:12:53;26.80;42.40
52973;DHT22;38837;48.916;2.336;2023-06-10T02:14:55;26.80;42.40
52973;DHT22;38837;48.916;2.336;2023-06-10T02:16:57;26.80;42.40
52973;DHT22;38837;48.916;2.336;2023-06-10T02:18:59;26.80;42.40
52973;DHT22;38837;48.916;2.336;2023-06-10T02:21:02;26.80;42.40
52973;DHT22;38837;48.916;2.336;2023-06-10T02:23:04;26.80;42.30
52973;DHT22;38837;48.916;2.336;2023-06-10T02:25:06;26.80;42.40
52973;DHT22;38837;48.916;2.336;2023-06-10T02:27:08;26.80;42.40
52973;DHT22;38837;48.916;2.336;2023-06-10T02:29:10;26.80;42.50
52973;DHT22;38837;48.916;2.336;2023-06-10T02:31:13;26.80;42.40
52973;DHT22;38837;48.916;2.336;2023-06-10T02:33:15;26.80;42.40
52973;DHT22;38837;48.916;2.336;2023-06-10T02:35:19;26.80;43.00
52973;DHT22;38837;48.916;2.336;2023-06-10T02:37:22;26.70;42.40
52973;DHT22;38837;48.916;2.336;2023-06-10T02:39:24;26.80;42.50
52973;DHT22;38837;48.916;2.336;2023-06-10T02:41:26;26.70;42.40
52973;DHT22;38837;48.916;2.336;2023-06-10T02:43:28;26.80;42.50
52973;DHT22;38837;48.916;2.336;2023-06-10T02:45:30;26.70;42.40
52973;DHT22;38837;48.916;2.336;2023-06-10T02:47:32;26.70;42.40
52973;DHT22;38837;48.916;2.336;2023-06-10T02:49:34;26.70;42.40
52973;DHT22;38837;48.916;2.336;2023-06-10T02:51:36;26.70;42.40
52973;DHT22;38837;48.916;2.336;2023-06-10T02:53:38;26.70;42.40
52973;DHT22;38837;48.916;2.336;2023-06-10T02:55:40;26.70;42.50
52973;DHT22;38837;48.916;2.336;2023-06-10T02:57:42;26.70;42.50
52973;DHT22;38837;48.916;2.336;2023-06-10T02:59:44;26.70;42.50
52973;DHT22;38837;48.916;2.336;2023-06-10T03:01:46;26.70;42.50
52973;DHT22;38837;48.916;2.336;2023-06-10T03:03:48;26.70;42.60
52973;DHT22;38837;48.916;2.336;2023-06-10T03:05:54;26.70;42.60
52973;DHT22;38837;48.916;2.336;2023-06-10T03:07:56;26.60;42.50
52973;DHT22;38837;48.916;2.336;2023-06-10T03:09:58;26.70;42.60
52973;DHT22;38837;48.916;2.336;2023-06-10T03:11:59;26.70;42.60
52973;DHT22;38837;48.916;2.336;2023-06-10T03:14:02;26.60;42.60
52973;DHT22;38837;48.916;2.336;2023-06-10T03:16:04;26.60;42.60
52973;DHT22;38837;48.916;2.336;2023-06-10T03:18:06;26.60;42.60
52973;DHT22;38837;48.916;2.336;2023-06-10T03:20:09;26.70;42.70
52973;DHT22;38837;48.916;2.336;2023-06-10T03:22:13;26.60;42.60
52973;DHT22;38837;48.916;2.336;2023-06-10T03:24:16;26.60;42.60
52973;DHT22;38837;48.916;2.336;2023-06-10T03:26:18;26.60;42.60
52973;DHT22;38837;48.916;2.336;2023-06-10T03:28:23;26.60;42.60
52973;DHT22;38837;48.916;2.336;2023-06-10T03:30:25;26.60;42.60
52973;DHT22;38837;48.916;2.336;2023-06-10T03:32:27;26.60;42.70
52973;DHT22;38837;48.916;2.336;2023-06-10T03:34:29;26.60;42.60
52973;DHT22;38837;48.916;2.336;2023-06-10T03:36:33;26.60;42.70
52973;DHT22;38837;48.916;2.336;2023-06-10T03:38:35;26.60;43.20
52973;DHT22;38837;48.916;2.336;2023-06-10T03:40:38;26.60;42.70
52973;DHT22;38837;48.916;2.336;2023-06-10T03:42:40;26.60;42.70
52973;DHT22;38837;48.916;2.336;2023-06-10T03:44:42;26.50;42.70
52973;DHT22;38837;48.916;2.336;2023-06-10T03:46:44;26.60;42.70
52973;DHT22;38837;48.916;2.336;2023-06-10T03:48:45;26.60;42.80
52973;DHT22;38837;48.916;2.336;2023-06-10T03:50:47;26.50;42.70
52973;DHT22;38837;48.916;2.336;2023-06-10T03:52:52;26.50;42.70
52973;DHT22;38837;48.916;2.336;2023-06-10T03:54:54;26.50;42.70
52973;DHT22;38837;48.916;2.336;2023-06-10T03:56:56;26.50;42.70
52973;DHT22;38837;48.916;2.336;2023-06-10T03:58:58;26.50;42.80
52973;DHT22;38837;48.916;2.336;2023-06-10T04:01:00;26.50;42.80
52973;DHT22;38837;48.916;2.336;2023-06-10T04:03:02;26.50;42.80
52973;DHT22;38837;48.916;2.336;2023-06-10T04:05:04;26.50;42.80
52973;DHT22;38837;48.916;2.336;2023-06-10T04:07:07;26.50;42.80
52973;DHT22;38837;48.916;2.336;2023-06-10T04:09:11;26.50;42.90
52973;DHT22;38837;48.916;2.336;2023-06-10T04:11:13;26.50;42.90
52973;DHT22;38837;48.916;2.336;2023-06-10T04:13:14;26.50;42.90
52973;DHT22;38837;48.916;2.336;2023-06-10T04:15:16;26.50;42.90
52973;DHT22;38837;48.916;2.336;2023-06-10T04:17:18;26.50;42.90
52973;DHT22;38837;48.916;2.336;2023-06-10T04:19:20;26.50;43.00
52973;DHT22;38837;48.916;2.336;2023-06-10T04:21:22;26.50;42.90
52973;DHT22;38837;48.916;2.336;2023-06-10T04:23:24;26.50;42.90
52973;DHT22;38837;48.916;2.336;2023-06-10T04:25:27;26.50;42.90
52973;DHT22;38837;48.916;2.336;2023-06-10T04:27:30;26.50;43.00
52973;DHT22;38837;48.916;2.336;2023-06-10T04:29:32;26.50;43.00
52973;DHT22;38837;48.916;2.336;2023-06-10T04:31:34;26.50;43.00
52973;DHT22;38837;48.916;2.336;2023-06-10T04:33:36;26.50;43.10
52973;DHT22;38837;48.916;2.336;2023-06-10T04:35:38;26.50;43.00
52973;DHT22;38837;48.916;2.336;2023-06-10T04:37:40;26.50;43.10
52973;DHT22;38837;48.916;2.336;2023-06-10T04:39:42;26.50;43.10
52973;DHT22;38837;48.916;2.336;2023-06-10T04:41:45;26.50;43.10
52973;DHT22;38837;48.916;2.336;2023-06-10T04:43:47;26.50;43.10
52973;DHT22;38837;48.916;2.336;2023-06-10T04:45:48;26.50;43.10
52973;DHT22;38837;48.916;2.336;2023-06-10T04:47:50;26.50;43.20
52973;DHT22;38837;48.916;2.336;2023-06-10T04:49:53;26.40;43.10
52973;DHT22;38837;48.916;2.336;2023-06-10T04:51:55;26.50;43.20
52973;DHT22;38837;48.916;2.336;2023-06-10T04:53:57;26.50;43.30
52973;DHT22;38837;48.916;2.336;2023-06-10T04:55:59;26.40;43.10
52973;DHT22;38837;48.916;2.336;2023-06-10T04:58:01;26.50;43.10
52973;DHT22;38837;48.916;2.336;2023-06-10T05:00:03;26.40;43.10
52973;DHT22;38837;48.916;2.336;2023-06-10T05:02:07;26.40;43.10
52973;DHT22;38837;48.916;2.336;2023-06-10T05:04:09;26.40;43.10
52973;DHT22;38837;48.916;2.336;2023-06-10T05:06:12;26.40;43.10
52973;DHT22;38837;48.916;2.336;2023-06-10T05:08:14;26.40;43.20
52973;DHT22;38837;48.916;2.336;2023-06-10T05:10:16;26.50;43.30
52973;DHT22;38837;48.916;2.336;2023-06-10T05:12:18;26.40;43.30
52973;DHT22;38837;48.916;2.336;2023-06-10T05:14:20;26.40;43.30
52973;DHT22;38837;48.916;2.336;2023-06-10T05:16:22;26.40;43.20
52973;DHT22;38837;48.916;2.336;2023-06-10T05:18:24;26.50;43.30
52973;DHT22;38837;48.916;2.336;2023-06-10T05:20:26;26.40;43.30
52973;DHT22;38837;48.916;2.336;2023-06-10T05:22:30;26.50;43.40
52973;DHT22;38837;48.916;2.336;2023-06-10T05:24:32;26.50;43.40
52973;DHT22;38837;48.916;2.336;2023-06-10T05:26:34;26.40;43.30
52973;DHT22;38837;48.916;2.336;2023-06-10T05:28:39;26.40;43.30
52973;DHT22;38837;48.916;2.336;2023-06-10T05:30:41;26.50;43.40
52973;DHT22;38837;48.916;2.336;2023-06-10T05:32:42;26.40;43.30
52973;DHT22;38837;48.916;2.336;2023-06-10T05:34:44;26.40;43.30
52973;DHT22;38837;48.916;2.336;2023-06-10T05:36:46;26.50;43.90
52973;DHT22;38837;48.916;2.336;2023-06-10T05:38:48;26.40;43.30
52973;DHT22;38837;48.916;2.336;2023-06-10T05:40:50;26.40;43.20
52973;DHT22;38837;48.916;2.336;2023-06-10T05:42:52;26.40;43.30
52973;DHT22;38837;48.916;2.336;2023-06-10T05:44:54;26.40;43.40
52973;DHT22;38837;48.916;2.336;2023-06-10T05:46:56;26.40;43.30
52973;DHT22;38837;48.916;2.336;2023-06-10T05:48:58;26.50;43.40
52973;DHT22;38837;48.916;2.336;2023-06-10T05:51:00;26.40;43.30
52973;DHT22;38837;48.916;2.336;2023-06-10T05:53:01;26.40;43.30
52973;DHT22;38837;48.916;2.336;2023-06-10T05:55:04;26.40;43.30
52973;DHT22;38837;48.916;2.336;2023-06-10T05:57:06;26.40;43.30
52973;DHT22;38837;48.916;2.336;2023-06-10T05:59:08;26.40;43.30
52973;DHT22;38837;48.916;2.336;2023-06-10T06:01:10;26.50;43.40
52973;DHT22;38837;48.916;2.336;2023-06-10T06:03:12;26.40;43.30
52973;DHT22;38837;48.916;2.336;2023-06-10T06:05:14;26.40;43.30
52973;DHT22;38837;48.916;2.336;2023-06-10T06:07:17;26.50;43.40
52973;DHT22;38837;48.916;2.336;2023-06-10T06:09:18;26.40;43.30
52973;DHT22;38837;48.916;2.336;2023-06-10T06:11:20;26.40;43.30
52973;DHT22;38837;48.916;2.336;2023-06-10T06:13:22;26.40;43.40
52973;DHT22;38837;48.916;2.336;2023-06-10T06:15:24;26.40;43.30
52973;DHT22;38837;48.916;2.336;2023-06-10T06:17:26;26.40;43.30
52973;DHT22;38837;48.916;2.336;2023-06-10T06:19:28;26.40;43.50
52973;DHT22;38837;48.916;2.336;2023-06-10T06:21:30;26.40;43.50
52973;DHT22;38837;48.916;2.336;2023-06-10T06:23:32;26.40;43.50
52973;DHT22;38837;48.916;2.336;2023-06-10T06:25:34;26.40;43.40
52973;DHT22;38837;48.916;2.336;2023-06-10T06:27:37;26.40;43.40
52973;DHT22;38837;48.916;2.336;2023-06-10T06:29:39;26.40;43.50
52973;DHT22;38837;48.916;2.336;2023-06-10T06:31:41;26.50;43.60
52973;DHT22;38837;48.916;2.336;2023-06-10T06:33:43;26.40;43.60
52973;DHT22;38837;48.916;2.336;2023-06-10T06:35:45;26.40;43.50
52973;DHT22;38837;48.916;2.336;2023-06-10T06:37:47;26.40;43.60
52973;DHT22;38837;48.916;2.336;2023-06-10T06:39:58;26.40;43.50
52973;DHT22;38837;48.916;2.336;2023-06-10T06:42:05;26.40;43.60
52973;DHT22;38837;48.916;2.336;2023-06-10T06:44:07;26.40;43.60
52973;DHT22;38837;48.916;2.336;2023-06-10T06:46:09;26.40;43.60
52973;DHT22;38837;48.916;2.336;2023-06-10T06:48:11;26.40;43.60
52973;DHT22;38837;48.916;2.336;2023-06-10T06:50:14;26.50;43.70
52973;DHT22;38837;48.916;2.336;2023-06-10T06:52:16;26.40;43.50
52973;DHT22;38837;48.916;2.336;2023-06-10T06:54:18;26.40;43.60
52973;DHT22;38837;48.916;2.336;2023-06-10T06:56:20;26.50;43.70
52973;DHT22;38837;48.916;2.336;2023-06-10T06:58:22;26.40;43.60
52973;DHT22;38837;48.916;2.336;2023-06-10T07:00:24;26.50;43.70
52973;DHT22;38837;48.916;2.336;2023-06-10T07:02:26;26.50;43.90
52973;DHT22;38837;48.916;2.336;2023-06-10T07:04:28;26.50;44.00
52973;DHT22;38837;48.916;2.336;2023-06-10T07:06:30;26.50;44.10
52973;DHT22;38837;48.916;2.336;2023-06-10T07:08:33;26.50;43.90
52973;DHT22;38837;48.916;2.336;2023-06-10T07:10:35;26.50;43.90
52973;DHT22;38837;48.916;2.336;2023-06-10T07:12:36;26.50;43.80
52973;DHT22;38837;48.916;2.336;2023-06-10T07:14:38;26.50;43.80
52973;DHT22;38837;48.916;2.336;2023-06-10T07:16:40;26.50;43.90
52973;DHT22;38837;48.916;2.336;2023-06-10T07:18:42;26.50;44.00
52973;DHT22;38837;48.916;2.336;2023-06-10T07:20:44;26.60;44.00
52973;DHT22;38837;48.916;2.336;2023-06-10T07:22:46;26.60;43.90
52973;DHT22;38837;48.916;2.336;2023-06-10T07:24:48;26.60;43.90
52973;DHT22;38837;48.916;2.336;2023-06-10T07:26:50;26.60;43.90
52973;DHT22;38837;48.916;2.336;2023-06-10T07:28:54;26.60;43.90
52973;DHT22;38837;48.916;2.336;2023-06-10T07:30:56;26.60;44.00
52973;DHT22;38837;48.916;2.336;2023-06-10T07:32:58;26.70;44.10
52973;DHT22;38837;48.916;2.336;2023-06-10T07:35:00;26.70;44.20
52973;DHT22;38837;48.916;2.336;2023-06-10T07:37:02;26.70;44.20
52973;DHT22;38837;48.916;2.336;2023-06-10T07:39:04;26.70;44.40
52973;DHT22;38837;48.916;2.336;2023-06-10T07:41:06;26.70;44.30
52973;DHT22;38837;48.916;2.336;2023-06-10T07:43:08;26.70;44.60
52973;DHT22;38837;48.916;2.336;2023-06-10T07:45:10;26.70;44.70
52973;DHT22;38837;48.916;2.336;2023-06-10T07:47:12;26.70;44.50
52973;DHT22;38837;48.916;2.336;2023-06-10T07:49:14;26.80;44.70
52973;DHT22;38837;48.916;2.336;2023-06-10T07:51:16;26.80;44.50
52973;DHT22;38837;48.916;2.336;2023-06-10T07:53:18;26.80;44.60
52973;DHT22;38837;48.916;2.336;2023-06-10T07:55:20;26.80;44.60
52973;DHT22;38837;48.916;2.336;2023-06-10T07:57:25;26.80;44.80
52973;DHT22;38837;48.916;2.336;2023-06-10T07:59:27;26.80;44.50
52973;DHT22;38837;48.916;2.336;2023-06-10T08:01:29;26.80;44.50
52973;DHT22;38837;48.916;2.336;2023-06-10T08:03:31;26.80;44.60
52973;DHT22;38837;48.916;2.336;2023-06-10T08:05:34;26.80;44.60
52973;DHT22;38837;48.916;2.336;2023-06-10T08:07:36;26.80;44.80
52973;DHT22;38837;48.916;2.336;2023-06-10T08:09:38;26.90;44.80
52973;DHT22;38837;48.916;2.336;2023-06-10T08:11:40;26.90;45.10
52973;DHT22;38837;48.916;2.336;2023-06-10T08:13:42;26.90;44.90
52973;DHT22;38837;48.916;2.336;2023-06-10T08:15:44;26.90;44.80
52973;DHT22;38837;48.916;2.336;2023-06-10T08:17:46;26.90;44.80
52973;DHT22;38837;48.916;2.336;2023-06-10T08:19:48;26.90;45.00
52973;DHT22;38837;48.916;2.336;2023-06-10T08:21:50;26.90;45.10
52973;DHT22;38837;48.916;2.336;2023-06-10T08:23:55;27.00;45.20
52973;DHT22;38837;48.916;2.336;2023-06-10T08:25:57;27.00;45.30
52973;DHT22;38837;48.916;2.336;2023-06-10T08:27:59;27.00;45.20
52973;DHT22;38837;48.916;2.336;2023-06-10T08:30:01;27.00;45.10
52973;DHT22;38837;48.916;2.336;2023-06-10T08:32:04;27.00;45.20
52973;DHT22;38837;48.916;2.336;2023-06-10T08:34:06;27.00;45.20
52973;DHT22;38837;48.916;2.336;2023-06-10T08:36:08;27.00;45.10
52973;DHT22;38837;48.916;2.336;2023-06-10T08:38:09;27.00;45.20
52973;DHT22;38837;48.916;2.336;2023-06-10T08:40:12;27.00;45.30
52973;DHT22;38837;48.916;2.336;2023-06-10T08:42:26;27.00;45.40
52973;DHT22;38837;48.916;2.336;2023-06-10T08:44:30;27.10;45.50
52973;DHT22;38837;48.916;2.336;2023-06-10T08:46:33;27.10;45.30
52973;DHT22;38837;48.916;2.336;2023-06-10T08:48:41;27.10;45.40
52973;DHT22;38837;48.916;2.336;2023-06-10T08:50:44;27.10;45.40
52973;DHT22;38837;48.916;2.336;2023-06-10T08:52:48;27.10;45.20
52973;DHT22;38837;48.916;2.336;2023-06-10T08:54:59;27.10;45.50
52973;DHT22;38837;48.916;2.336;2023-06-10T08:57:04;27.10;46.00
52973;DHT22;38837;48.916;2.336;2023-06-10T08:59:07;27.10;45.70
52973;DHT22;38837;48.916;2.336;2023-06-10T09:01:10;27.10;45.90
52973;DHT22;38837;48.916;2.336;2023-06-10T09:03:13;27.10;45.70
52973;DHT22;38837;48.916;2.336;2023-06-10T09:05:16;27.10;45.70
52973;DHT22;38837;48.916;2.336;2023-06-10T09:07:18;27.10;46.20
52973;DHT22;38837;48.916;2.336;2023-06-10T09:09:20;27.10;45.80
52973;DHT22;38837;48.916;2.336;2023-06-10T09:11:22;27.10;45.70
52973;DHT22;38837;48.916;2.336;2023-06-10T09:13:24;27.20;45.70
52973;DHT22;38837;48.916;2.336;2023-06-10T09:15:27;27.20;45.60
52973;DHT22;38837;48.916;2.336;2023-06-10T09:17:29;27.20;45.60
52973;DHT22;38837;48.916;2.336;2023-06-10T09:19:31;27.20;45.70
52973;DHT22;38837;48.916;2.336;2023-06-10T09:21:34;27.20;45.70
52973;DHT22;38837;48.916;2.336;2023-06-10T09:23:37;27.20;45.90
52973;DHT22;38837;48.916;2.336;2023-06-10T09:25:39;27.20;45.80
52973;DHT22;38837;48.916;2.336;2023-06-10T09:27:46;27.20;45.90
52973;DHT22;38837;48.916;2.336;2023-06-10T09:29:53;27.20;45.90
52973;DHT22;38837;48.916;2.336;2023-06-10T09:31:55;27.20;46.00
52973;DHT22;38837;48.916;2.336;2023-06-10T09:34:07;27.20;45.90
52973;DHT22;38837;48.916;2.336;2023-06-10T09:36:09;27.20;46.10
52973;DHT22;38837;48.916;2.336;2023-06-10T09:38:11;27.20;46.00
52973;DHT22;38837;48.916;2.336;2023-06-10T09:40:13;27.20;45.80
52973;DHT22;38837;48.916;2.336;2023-06-10T09:42:16;27.20;45.70
52973;DHT22;38837;48.916;2.336;2023-06-10T09:44:23;27.20;45.80
52973;DHT22;38837;48.916;2.336;2023-06-10T09:46:31;27.30;45.90
52973;DHT22;38837;48.916;2.336;2023-06-10T09:48:44;27.20;45.80
52973;DHT22;38837;48.916;2.336;2023-06-10T09:50:48;27.30;45.80
52973;DHT22;38837;48.916;2.336;2023-06-10T09:52:51;27.30;46.20
52973;DHT22;38837;48.916;2.336;2023-06-10T09:54:54;27.30;45.80
52973;DHT22;38837;48.916;2.336;2023-06-10T09:57:07;27.30;45.90
52973;DHT22;38837;48.916;2.336;2023-06-10T09:59:11;27.30;45.90
52973;DHT22;38837;48.916;2.336;2023-06-10T10:01:14;27.30;46.00
52973;DHT22;38837;48.916;2.336;2023-06-10T10:03:22;27.30;45.70
52973;DHT22;38837;48.916;2.336;2023-06-10T10:05:24;27.40;45.80
52973;DHT22;38837;48.916;2.336;2023-06-10T10:07:27;27.30;45.70
52973;DHT22;38837;48.916;2.336;2023-06-10T10:09:35;27.40;45.80
52973;DHT22;38837;48.916;2.336;2023-06-10T10:11:37;27.40;45.90
52973;DHT22;38837;48.916;2.336;2023-06-10T10:13:39;27.40;45.80
52973;DHT22;38837;48.916;2.336;2023-06-10T10:15:42;27.40;45.70
52973;DHT22;38837;48.916;2.336;2023-06-10T10:18:09;27.40;45.80
52973;DHT22;38837;48.916;2.336;2023-06-10T10:20:14;27.40;46.10
52973;DHT22;38837;48.916;2.336;2023-06-10T10:22:25;27.40;45.80
52973;DHT22;38837;48.916;2.336;2023-06-10T10:24:40;27.50;46.00
52973;DHT22;38837;48.916;2.336;2023-06-10T10:26:43;27.50;46.60
52973;DHT22;38837;48.916;2.336;2023-06-10T10:29:10;27.50;46.20
52973;DHT22;38837;48.916;2.336;2023-06-10T10:31:15;27.50;46.10
52973;DHT22;38837;48.916;2.336;2023-06-10T10:33:33;27.60;45.90
52973;DHT22;38837;48.916;2.336;2023-06-10T10:35:38;27.60;45.90
52973;DHT22;38837;48.916;2.336;2023-06-10T10:37:41;27.60;45.80
52973;DHT22;38837;48.916;2.336;2023-06-10T10:39:44;27.60;45.80
52973;DHT22;38837;48.916;2.336;2023-06-10T10:41:47;27.70;45.80
52973;DHT22;38837;48.916;2.336;2023-06-10T10:43:49;27.70;45.60
52973;DHT22;38837;48.916;2.336;2023-06-10T10:46:11;27.70;45.60
52973;DHT22;38837;48.916;2.336;2023-06-10T10:48:14;27.70;45.60
52973;DHT22;38837;48.916;2.336;2023-06-10T10:50:18;27.80;45.50
52973;DHT22;38837;48.916;2.336;2023-06-10T10:52:20;27.80;45.60
52973;DHT22;38837;48.916;2.336;2023-06-10T10:54:34;27.80;45.50
52973;DHT22;38837;48.916;2.336;2023-06-10T10:56:36;27.80;45.80
52973;DHT22;38837;48.916;2.336;2023-06-10T10:58:38;27.80;45.70
52973;DHT22;38837;48.916;2.336;2023-06-10T11:00:44;27.90;45.70
52973;DHT22;38837;48.916;2.336;2023-06-10T11:02:47;27.90;45.80
52973;DHT22;38837;48.916;2.336;2023-06-10T11:04:50;27.90;45.80
52973;DHT22;38837;48.916;2.336;2023-06-10T11:06:53;28.00;46.40
52973;DHT22;38837;48.916;2.336;2023-06-10T11:08:55;28.00;46.50
52973;DHT22;38837;48.916;2.336;2023-06-10T11:11:22;28.10;46.30
52973;DHT22;38837;48.916;2.336;2023-06-10T11:13:26;28.10;46.00
52973;DHT22;38837;48.916;2.336;2023-06-10T11:15:29;28.10;46.00
52973;DHT22;38837;48.916;2.336;2023-06-10T11:17:31;28.20;45.80
52973;DHT22;38837;48.916;2.336;2023-06-10T11:19:34;28.20;45.60
52973;DHT22;38837;48.916;2.336;2023-06-10T11:21:58;28.20;46.00
52973;DHT22;38837;48.916;2.336;2023-06-10T11:24:00;28.20;45.50
52973;DHT22;38837;48.916;2.336;2023-06-10T11:28:33;28.30;45.40
52973;DHT22;38837;48.916;2.336;2023-06-10T11:30:35;28.40;45.40
52973;DHT22;38837;48.916;2.336;2023-06-10T11:32:37;28.40;45.50
52973;DHT22;38837;48.916;2.336;2023-06-10T11:34:41;28.40;45.30
52973;DHT22;38837;48.916;2.336;2023-06-10T11:36:43;28.50;45.30
52973;DHT22;38837;48.916;2.336;2023-06-10T11:38:48;28.50;45.30
52973;DHT22;38837;48.916;2.336;2023-06-10T11:40:51;28.50;45.30
52973;DHT22;38837;48.916;2.336;2023-06-10T11:42:53;28.60;45.20
52973;DHT22;38837;48.916;2.336;2023-06-10T11:44:55;28.50;45.20
52973;DHT22;38837;48.916;2.336;2023-06-10T11:46:57;28.60;45.10
52973;DHT22;38837;48.916;2.336;2023-06-10T11:49:00;28.60;45.20
52973;DHT22;38837;48.916;2.336;2023-06-10T11:51:07;28.60;45.20
52973;DHT22;38837;48.916;2.336;2023-06-10T11:53:09;28.70;45.20
52973;DHT22;38837;48.916;2.336;2023-06-10T11:55:11;28.70;45.30
52973;DHT22;38837;48.916;2.336;2023-06-10T11:57:13;28.70;45.20
52973;DHT22;38837;48.916;2.336;2023-06-10T11:59:15;28.70;45.10
52973;DHT22;38837;48.916;2.336;2023-06-10T12:01:21;28.80;45.30
52973;DHT22;38837;48.916;2.336;2023-06-10T12:03:36;28.80;45.10
52973;DHT22;38837;48.916;2.336;2023-06-10T12:05:39;28.80;44.90
52973;DHT22;38837;48.916;2.336;2023-06-10T12:07:41;28.90;45.00
52973;DHT22;38837;48.916;2.336;2023-06-10T12:09:43;28.90;44.80
52973;DHT22;38837;48.916;2.336;2023-06-10T12:11:48;28.90;44.70
52973;DHT22;38837;48.916;2.336;2023-06-10T12:13:50;29.00;44.80
52973;DHT22;38837;48.916;2.336;2023-06-10T12:15:53;29.00;44.70
52973;DHT22;38837;48.916;2.336;2023-06-10T12:17:55;29.00;44.80
52973;DHT22;38837;48.916;2.336;2023-06-10T12:19:57;29.00;44.70
52973;DHT22;38837;48.916;2.336;2023-06-10T12:22:00;29.00;45.10
52973;DHT22;38837;48.916;2.336;2023-06-10T12:24:09;29.10;44.90
52973;DHT22;38837;48.916;2.336;2023-06-10T12:26:11;29.10;45.20
52973;DHT22;38837;48.916;2.336;2023-06-10T12:28:13;29.10;45.00
52973;DHT22;38837;48.916;2.336;2023-06-10T12:30:24;29.20;45.30
52973;DHT22;38837;48.916;2.336;2023-06-10T12:34:39;29.20;45.60
52973;DHT22;38837;48.916;2.336;2023-06-10T12:36:50;29.20;45.10
52973;DHT22;38837;48.916;2.336;2023-06-10T12:38:52;29.20;45.30
52973;DHT22;38837;48.916;2.336;2023-06-10T12:41:02;29.30;45.20
52973;DHT22;38837;48.916;2.336;2023-06-10T12:43:10;29.30;45.30
52973;DHT22;38837;48.916;2.336;2023-06-10T12:45:13;29.30;45.20
52973;DHT22;38837;48.916;2.336;2023-06-10T12:47:15;29.30;45.30
52973;DHT22;38837;48.916;2.336;2023-06-10T12:49:19;29.30;45.20
52973;DHT22;38837;48.916;2.336;2023-06-10T12:51:21;29.40;45.80
52973;DHT22;38837;48.916;2.336;2023-06-10T12:53:24;29.40;45.20
52973;DHT22;38837;48.916;2.336;2023-06-10T12:55:28;29.40;45.30
52973;DHT22;38837;48.916;2.336;2023-06-10T12:57:30;29.40;45.40
52973;DHT22;38837;48.916;2.336;2023-06-10T12:59:32;29.40;45.90
52973;DHT22;38837;48.916;2.336;2023-06-10T13:01:37;29.40;45.30
52973;DHT22;38837;48.916;2.336;2023-06-10T13:03:39;29.40;45.30
52973;DHT22;38837;48.916;2.336;2023-06-10T13:05:42;29.40;45.50
52973;DHT22;38837;48.916;2.336;2023-06-10T13:07:44;29.50;45.50